Time;durP1;ratioP1;P1;durP2;ratioP2;P2;SDS_P1;SDS_P2;PMS_P1;PMS_P2;Temp;Humidity;BMP_temperature;BMP_pressure;BME280_temperature;BME280_humidity;BME280_pressure;Samples;Min_cycle;Max_cycle;Signal;HPM_P1;HPM_P2
2022/04/06 02:15:46;;;;;;;10.83;9.33;;;8.10;93.40;;;;;;4862998;29;20238;-87
2022/04/06 02:18:12;;;;;;;11.43;8.97;;;8.10;93.30;;;;;;4848049;29;20187;-88
2022/04/06 02:20:37;;;;;;;11.93;9.00;;;8.00;93.30;;;;;;4847911;29;20186;-87
2022/04/06 02:23:03;;;;;;;13.03;8.90;;;8.10;93.40;;;;;;4847814;29;20175;-86
2022/04/06 02:25:29;;;;;;;17.07;9.47;;;8.10;93.40;;;;;;4864395;29;20187;-86
2022/04/06 02:27:54;;;;;;;9.43;6.23;;;8.00;93.40;;;;;;4847849;29;20183;-87
2022/04/06 02:30:20;;;;;;;14.53;8.83;;;8.00;93.50;;;;;;4863236;29;20266;-88
2022/04/06 02:32:46;;;;;;;14.83;9.47;;;8.10;93.50;;;;;;4864490;29;20190;-87
2022/04/06 02:35:13;;;;;;;13.97;9.83;;;8.00;93.50;;;;;;4864258;29;20242;-86
2022/04/06 02:37:44;;;;;;;11.13;8.30;;;8.10;93.50;;;;;;4847759;29;20270;-86
2022/04/06 02:40:11;;;;;;;10.30;6.47;;;8.10;93.60;;;;;;4864165;29;20159;-87
2022/04/06 02:42:36;;;;;;;17.07;9.40;;;8.00;93.60;;;;;;4847467;29;20190;-86
2022/04/06 02:45:02;;;;;;;19.00;9.87;;;8.10;93.60;;;;;;4863958;29;20211;-86
2022/04/06 02:47:28;;;;;;;10.27;6.57;;;8.00;93.70;;;;;;4864041;29;20183;-87
2022/04/06 02:49:53;;;;;;;13.27;9.83;;;8.00;93.70;;;;;;4847422;29;20183;-87
2022/04/06 02:52:19;;;;;;;14.20;10.30;;;8.00;93.80;;;;;;4847393;29;20186;-87
2022/04/06 02:54:44;;;;;;;14.70;10.07;;;8.00;93.80;;;;;;4847356;29;20705;-87
2022/04/06 02:57:10;;;;;;;16.67;10.70;;;8.00;93.80;;;;;;4864115;29;20205;-86
2022/04/06 02:59:37;;;;;;;16.73;11.10;;;8.10;93.90;;;;;;4847610;29;20700;-86
2022/04/06 03:02:03;;;;;;;17.07;13.43;;;8.10;93.90;;;;;;4863893;29;20171;-86
2022/04/06 03:04:28;;;;;;;15.27;12.17;;;8.00;93.90;;;;;;4847299;29;20205;-86
2022/04/06 03:06:54;;;;;;;16.60;12.83;;;8.00;93.90;;;;;;4863899;29;20650;-86
2022/04/06 03:09:19;;;;;;;12.47;9.50;;;8.10;94.00;;;;;;4847219;29;20274;-87
2022/04/06 03:11:45;;;;;;;18.70;11.07;;;8.10;94.00;;;;;;4847058;29;20174;-86
2022/04/06 03:14:10;;;;;;;14.90;10.57;;;8.10;94.00;;;;;;4863594;29;20652;-87
2022/04/06 03:16:36;;;;;;;24.03;14.63;;;8.10;93.90;;;;;;4846805;29;20202;-87
2022/04/06 03:19:01;;;;;;;18.57;14.30;;;8.10;93.80;;;;;;4846529;29;20179;-85
2022/04/06 03:21:27;;;;;;;20.20;12.70;;;8.10;93.80;;;;;;4863577;29;20175;-87
2022/04/06 03:23:53;;;;;;;21.43;13.27;;;8.10;93.70;;;;;;4846800;29;20241;-87
2022/04/06 03:26:18;;;;;;;24.83;14.43;;;8.10;93.70;;;;;;4863305;29;20239;-86
2022/04/06 03:28:44;;;;;;;25.33;14.70;;;8.10;93.60;;;;;;4846749;29;20183;-86
2022/04/06 03:31:09;;;;;;;22.00;13.67;;;8.10;93.50;;;;;;4846661;29;20198;-87
2022/04/06 03:33:35;;;;;;;21.10;13.93;;;8.20;93.50;;;;;;4846478;29;20202;-86
2022/04/06 03:36:02;;;;;;;28.00;14.77;;;8.20;93.40;;;;;;4846619;29;20649;-86
2022/04/06 03:38:28;;;;;;;32.30;16.00;;;8.20;93.40;;;;;;4863124;29;20203;-86
2022/04/06 03:40:53;;;;;;;23.03;14.77;;;8.20;93.40;;;;;;4846265;29;20633;-86
2022/04/06 03:43:19;;;;;;;21.43;13.60;;;8.10;93.30;;;;;;4846230;29;20250;-87
2022/04/06 03:45:44;;;;;;;23.87;15.10;;;8.10;93.30;;;;;;4862790;29;20194;-85
2022/04/06 03:48:11;;;;;;;22.87;14.10;;;8.10;93.30;;;;;;4863013;29;20187;-85
2022/04/06 03:50:36;;;;;;;22.00;15.00;;;8.10;93.30;;;;;;4846113;29;20218;-86
2022/04/06 03:53:02;;;;;;;19.93;13.33;;;8.10;93.20;;;;;;4846318;29;20681;-86
2022/04/06 03:55:28;;;;;;;29.30;16.97;;;8.10;93.20;;;;;;4846240;29;20588;-86
2022/04/06 03:57:53;;;;;;;24.13;15.87;;;8.20;93.10;;;;;;4862997;29;20191;-86
2022/04/06 04:00:19;;;;;;;31.83;17.07;;;8.10;93.10;;;;;;4845969;29;20277;-86
2022/04/06 04:02:46;;;;;;;28.60;17.33;;;8.10;93.10;;;;;;4862684;29;20231;-86
2022/04/06 04:05:12;;;;;;;31.63;18.20;;;8.10;93.10;;;;;;4862752;29;20198;-86
2022/04/06 04:07:37;;;;;;;32.40;18.70;;;8.10;93.10;;;;;;4862552;29;20315;-86
2022/04/06 04:10:09;;;;;;;28.27;17.07;;;8.10;93.10;;;;;;4862463;29;20266;-86
2022/04/06 04:12:35;;;;;;;35.57;19.23;;;8.10;93.00;;;;;;4862453;29;20250;-86
2022/04/06 04:15:01;;;;;;;28.53;14.20;;;8.20;93.10;;;;;;4862036;29;20697;-85
2022/04/06 04:17:27;;;;;;;35.80;19.50;;;8.20;93.10;;;;;;4845670;29;20194;-86
2022/04/06 04:19:52;;;;;;;34.77;19.33;;;8.20;93.10;;;;;;4845708;29;20179;-86
2022/04/06 04:22:18;;;;;;;35.10;19.17;;;8.20;93.00;;;;;;4861922;29;20178;-85
2022/04/06 04:24:44;;;;;;;27.10;17.83;;;8.30;93.00;;;;;;4861903;29;20209;-86
2022/04/06 04:27:09;;;;;;;35.00;22.00;;;8.30;93.00;;;;;;4845490;29;20236;-87
2022/04/06 04:29:35;;;;;;;43.67;24.37;;;8.30;93.00;;;;;;4861988;29;20182;-87
2022/04/06 04:32:00;;;;;;;32.23;19.63;;;8.30;93.00;;;;;;4862188;29;20178;-86
2022/04/06 04:34:26;;;;;;;36.63;21.97;;;8.30;93.00;;;;;;4845181;29;20679;-86
2022/04/06 04:36:53;;;;;;;40.63;24.43;;;8.30;93.10;;;;;;4861545;29;20282;-86
2022/04/06 04:39:18;;;;;;;31.47;23.33;;;8.30;93.20;;;;;;4861721;29;20199;-86
2022/04/06 04:41:45;;;;;;;43.87;26.77;;;8.30;93.20;;;;;;4861913;29;20660;-87
2022/04/06 04:44:11;;;;;;;47.27;29.73;;;8.30;93.30;;;;;;4861784;29;20218;-86
2022/04/06 04:46:36;;;;;;;43.43;22.50;;;8.30;93.30;;;;;;4845369;29;20294;-86
2022/04/06 04:49:02;;;;;;;44.87;29.03;;;8.30;93.30;;;;;;4845005;29;20186;-87
2022/04/06 04:51:28;;;;;;;43.57;27.70;;;8.30;93.20;;;;;;4844916;29;20187;-86
2022/04/06 04:53:54;;;;;;;48.63;27.97;;;8.30;93.30;;;;;;4844459;29;20302;-87
2022/04/06 04:56:20;;;;;;;49.50;30.27;;;8.30;93.30;;;;;;4844839;29;20296;-85
2022/04/06 04:58:45;;;;;;;51.57;32.23;;;8.30;93.30;;;;;;4844758;29;20186;-86
2022/04/06 05:01:11;;;;;;;52.10;30.83;;;8.30;93.30;;;;;;4844907;29;20178;-87
2022/04/06 05:03:36;;;;;;;49.10;31.70;;;8.30;93.30;;;;;;4861357;29;20199;-86
2022/04/06 05:06:02;;;;;;;43.87;27.40;;;8.30;93.30;;;;;;4844731;29;20537;-86
2022/04/06 05:08:27;;;;;;;44.83;27.23;;;8.30;93.30;;;;;;4844959;29;20187;-86
2022/04/06 05:10:53;;;;;;;43.03;27.67;;;8.30;93.20;;;;;;4861279;29;20190;-86
2022/04/06 05:13:19;;;;;;;55.63;30.87;;;8.40;93.00;;;;;;4845151;29;20241;-86
2022/04/06 05:15:45;;;;;;;51.30;30.57;;;8.40;93.00;;;;;;4861032;29;20223;-86
2022/04/06 05:18:11;;;;;;;37.40;25.07;;;8.40;92.90;;;;;;4861282;29;20638;-86
2022/04/06 05:20:36;;;;;;;46.40;29.03;;;8.40;92.90;;;;;;4861198;29;20190;-87
2022/04/06 05:23:02;;;;;;;35.53;22.87;;;8.40;92.80;;;;;;4844703;29;20269;-85
2022/04/06 05:25:27;;;;;;;49.17;28.03;;;8.40;92.80;;;;;;4861154;29;20183;-86
2022/04/06 05:27:55;;;;;;;47.13;26.00;;;8.40;92.70;;;;;;4844549;29;20642;-87
2022/04/06 05:30:25;;;;;;;43.87;26.00;;;8.50;92.60;;;;;;4844480;29;20190;-87
2022/04/06 05:32:53;;;;;;;43.23;21.03;;;8.40;92.40;;;;;;4844315;29;20278;-87
2022/04/06 05:35:19;;;;;;;31.40;21.07;;;8.40;92.40;;;;;;4844592;29;20218;-87
2022/04/06 05:37:45;;;;;;;37.50;21.07;;;8.40;92.30;;;;;;4844608;29;20596;-88
2022/04/06 05:40:13;;;;;;;36.40;19.83;;;8.40;92.10;;;;;;4860977;29;20642;-87
2022/04/06 05:42:39;;;;;;;38.67;21.13;;;8.50;91.90;;;;;;4844501;29;20183;-87
2022/04/06 05:45:09;;;;;;;39.63;21.23;;;8.50;91.90;;;;;;4860883;29;20203;-87
2022/04/06 05:47:35;;;;;;;40.40;20.67;;;8.50;91.80;;;;;;4860927;29;20270;-86
2022/04/06 05:50:01;;;;;;;35.10;21.03;;;8.50;91.70;;;;;;4861148;29;20186;-86
2022/04/06 05:52:27;;;;;;;32.37;17.90;;;8.50;91.60;;;;;;4860878;29;20194;-86
2022/04/06 05:54:53;;;;;;;33.10;19.17;;;8.50;91.60;;;;;;4844334;29;20203;-87
2022/04/06 05:57:19;;;;;;;32.00;17.83;;;8.50;91.60;;;;;;4844530;29;20175;-87
2022/04/06 05:59:45;;;;;;;34.57;18.30;;;8.50;91.60;;;;;;4844333;29;20563;-87
2022/04/06 06:02:11;;;;;;;24.43;14.30;;;8.50;91.50;;;;;;4860844;29;20186;-86
2022/04/06 06:04:38;;;;;;;26.87;15.43;;;8.50;91.40;;;;;;4846169;29;20205;-86
2022/04/06 06:07:05;;;;;;;31.73;14.90;;;8.60;91.30;;;;;;4847618;29;20182;-87
2022/04/06 06:09:31;;;;;;;35.23;15.23;;;8.50;91.40;;;;;;4864287;29;20182;-86
2022/04/06 06:11:56;;;;;;;28.53;15.27;;;8.50;91.40;;;;;;4847964;29;20182;-87
2022/04/06 06:14:22;;;;;;;24.97;15.07;;;8.60;91.40;;;;;;4847407;29;20215;-86
2022/04/06 06:16:49;;;;;;;23.17;10.90;;;8.60;91.40;;;;;;4863998;29;20674;-86
2022/04/06 06:19:15;;;;;;;20.07;11.03;;;8.50;91.40;;;;;;4864300;29;20175;-87
2022/04/06 06:21:41;;;;;;;24.83;16.17;;;8.60;91.20;;;;;;4847401;29;20210;-87
2022/04/06 06:24:06;;;;;;;24.37;13.93;;;8.60;91.10;;;;;;4847454;29;20566;-87
2022/04/06 06:26:33;;;;;;;24.87;15.07;;;8.60;91.20;;;;;;4847298;29;20187;-87
2022/04/06 06:28:59;;;;;;;22.07;11.03;;;8.60;90.70;;;;;;4847326;29;20187;-86
2022/04/06 06:31:25;;;;;;;29.97;14.20;;;8.70;90.80;;;;;;4847465;29;20197;-87
2022/04/06 06:33:51;;;;;;;27.17;14.13;;;8.70;90.70;;;;;;4847206;29;20207;-87
2022/04/06 06:36:17;;;;;;;31.90;14.63;;;8.70;90.70;;;;;;4847216;29;20211;-86
2022/04/06 06:38:42;;;;;;;29.77;15.03;;;8.70;90.70;;;;;;4863978;29;20175;-87
2022/04/06 06:41:08;;;;;;;24.93;13.40;;;8.70;90.60;;;;;;4847001;29;20182;-87
2022/04/06 06:43:33;;;;;;;22.13;12.13;;;8.80;90.50;;;;;;4847173;29;20255;-87
2022/04/06 06:45:59;;;;;;;28.17;14.33;;;8.70;90.40;;;;;;4863847;29;20606;-87
2022/04/06 06:48:24;;;;;;;30.30;13.30;;;8.80;90.30;;;;;;4846876;29;20186;-87
2022/04/06 06:50:50;;;;;;;25.20;12.67;;;8.80;90.10;;;;;;4847288;29;20187;-88
2022/04/06 06:53:16;;;;;;;19.00;10.47;;;8.80;90.00;;;;;;4847156;29;20182;-87
2022/04/06 06:55:41;;;;;;;26.37;13.23;;;8.90;89.90;;;;;;4846797;29;20207;-87
2022/04/06 06:58:07;;;;;;;21.27;11.63;;;8.90;89.80;;;;;;4847951;29;20183;-87
2022/04/06 07:00:33;;;;;;;25.23;12.63;;;8.90;89.70;;;;;;4863441;29;20210;-87
2022/04/06 07:02:58;;;;;;;15.30;10.07;;;8.90;89.40;;;;;;4846678;29;20183;-87
2022/04/06 07:05:24;;;;;;;15.63;10.13;;;8.90;89.40;;;;;;4846979;29;20182;-88
2022/04/06 07:07:55;;;;;;;12.87;8.57;;;8.90;89.10;;;;;;4846672;29;20197;-86
2022/04/06 07:10:22;;;;;;;25.33;15.40;;;9.00;89.30;;;;;;4847050;29;20221;-86
2022/04/06 07:12:47;;;;;;;27.67;14.37;;;8.90;89.30;;;;;;4846407;29;20198;-87
2022/04/06 07:15:14;;;;;;;24.60;11.27;;;9.00;89.60;;;;;;4862255;29;20222;-87
2022/04/06 07:17:40;;;;;;;28.03;14.80;;;8.90;89.50;;;;;;4846541;29;20175;-87
2022/04/06 07:20:06;;;;;;;29.93;14.17;;;9.00;89.30;;;;;;4863371;29;20201;-87
2022/04/06 07:22:32;;;;;;;17.87;10.70;;;9.00;89.30;;;;;;4846836;29;20239;-87
2022/04/06 07:24:57;;;;;;;25.43;14.50;;;9.00;89.20;;;;;;4846331;29;20635;-87
2022/04/06 07:27:23;;;;;;;31.63;15.13;;;9.10;89.10;;;;;;4863049;29;20182;-86
2022/04/06 07:29:48;;;;;;;26.30;14.47;;;9.00;88.70;;;;;;4846200;29;20178;-87
2022/04/06 07:32:14;;;;;;;25.73;13.80;;;9.10;88.90;;;;;;4862953;29;20208;-87
2022/04/06 07:34:40;;;;;;;26.43;15.83;;;9.10;88.90;;;;;;4846125;29;20198;-86
2022/04/06 07:37:05;;;;;;;18.70;12.17;;;9.10;88.80;;;;;;4846453;29;20174;-88
2022/04/06 07:39:31;;;;;;;19.67;10.73;;;9.10;89.00;;;;;;4846185;29;20195;-87
2022/04/06 07:41:56;;;;;;;21.70;14.40;;;9.10;88.50;;;;;;4862869;29;20186;-88
2022/04/06 07:44:25;;;;;;;29.20;14.13;;;9.20;88.40;;;;;;4846123;29;20226;-87
2022/04/06 07:46:51;;;;;;;18.57;10.60;;;9.10;88.40;;;;;;4862789;29;20198;-87
2022/04/06 07:49:17;;;;;;;22.90;11.33;;;9.20;88.20;;;;;;4845948;29;20654;-87
2022/04/06 07:51:43;;;;;;;23.73;14.60;;;9.20;88.30;;;;;;4862660;29;20266;-87
2022/04/06 07:54:09;;;;;;;20.47;13.13;;;9.20;88.60;;;;;;4846010;29;20259;-87
2022/04/06 07:56:36;;;;;;;30.70;14.37;;;9.20;88.40;;;;;;4862327;29;20211;-86
2022/04/06 07:59:03;;;;;;;27.93;13.90;;;9.20;88.10;;;;;;4845568;29;20269;-85
2022/04/06 08:01:28;;;;;;;25.00;14.60;;;9.20;88.10;;;;;;4845667;29;20183;-86
2022/04/06 08:03:54;;;;;;;23.53;12.03;;;9.30;87.90;;;;;;4862432;29;20202;-87
2022/04/06 08:06:19;;;;;;;23.13;12.63;;;9.20;88.10;;;;;;4845788;29;20230;-87
2022/04/06 08:08:45;;;;;;;20.90;13.00;;;9.30;88.20;;;;;;4845605;29;20190;-87
2022/04/06 08:11:11;;;;;;;22.13;13.47;;;9.20;88.00;;;;;;4862147;29;20179;-88
2022/04/06 08:13:36;;;;;;;23.37;13.00;;;9.20;87.80;;;;;;4845678;29;20705;-88
2022/04/06 08:16:02;;;;;;;20.17;11.60;;;9.30;87.90;;;;;;4845881;29;20689;-87
2022/04/06 08:18:28;;;;;;;18.83;11.40;;;9.30;87.60;;;;;;4862098;29;20254;-87
2022/04/06 08:20:54;;;;;;;22.13;12.40;;;9.20;87.80;;;;;;4845571;29;20255;-88
2022/04/06 08:23:20;;;;;;;21.77;12.40;;;9.30;87.90;;;;;;4862357;29;20202;-89
2022/04/06 08:25:46;;;;;;;21.93;13.77;;;9.30;88.10;;;;;;4845270;29;20563;-86
2022/04/06 08:28:13;;;;;;;23.60;11.77;;;9.20;88.30;;;;;;4845875;29;20212;-87
2022/04/06 08:30:43;;;;;;;19.87;10.73;;;9.20;88.80;;;;;;4846489;29;20273;-86
2022/04/06 08:33:09;;;;;;;19.20;9.57;;;9.20;88.70;;;;;;4845319;29;20255;-87
2022/04/06 08:35:35;;;;;;;23.23;13.03;;;9.20;88.90;;;;;;4861868;29;20270;-87
2022/04/06 08:38:03;;;;;;;21.47;14.03;;;9.10;89.10;;;;;;4845206;29;20234;-87
2022/04/06 08:40:30;;;;;;;21.47;11.90;;;9.10;89.60;;;;;;4862167;29;20265;-89
2022/04/06 08:42:56;;;;;;;24.27;12.40;;;9.10;89.70;;;;;;4845201;29;20658;-87
2022/04/06 08:45:22;;;;;;;26.37;14.57;;;9.10;90.00;;;;;;4845216;29;20217;-88
2022/04/06 08:47:49;;;;;;;21.87;12.93;;;9.10;90.30;;;;;;4845319;29;20269;-88
2022/04/06 08:50:18;;;;;;;20.37;12.80;;;9.00;90.70;;;;;;4845047;29;20183;-88
2022/04/06 08:52:44;;;;;;;24.40;14.90;;;9.00;90.90;;;;;;4844989;29;20190;-88
2022/04/06 08:55:12;;;;;;;27.00;14.93;;;9.00;91.20;;;;;;4844890;29;20729;-89
2022/04/06 08:57:38;;;;;;;25.27;14.90;;;8.90;91.50;;;;;;4861616;29;20171;-89
2022/04/06 09:00:05;;;;;;;28.60;15.10;;;8.90;91.80;;;;;;4845274;29;20650;-89
2022/04/06 09:02:33;;;;;;;32.43;13.27;;;8.90;91.90;;;;;;4844909;29;20183;-88
2022/04/06 09:05:02;;;;;;;14.50;11.37;;;8.80;91.80;;;;;;4844777;29;20199;-89
2022/04/06 09:07:28;;;;;;;20.20;13.57;;;8.80;91.90;;;;;;4861791;29;20231;-88
2022/04/06 09:09:55;;;;;;;28.23;15.03;;;8.80;92.10;;;;;;4844898;29;20189;-87
2022/04/06 09:12:23;;;;;;;20.87;13.33;;;8.80;92.30;;;;;;4845143;29;20214;-88
2022/04/06 09:15:02;;;;;;;26.17;16.67;;;8.80;92.50;;;;;;4844791;29;20218;-87
2022/04/06 09:17:28;;;;;;;21.03;12.03;;;8.80;92.50;;;;;;4844665;29;20163;-88
2022/04/06 09:19:53;;;;;;;27.47;15.30;;;8.80;92.70;;;;;;4844777;29;20204;-89
2022/04/06 09:22:20;;;;;;;22.77;14.27;;;8.80;92.80;;;;;;4844884;29;20187;-89
2022/04/06 09:24:55;;;;;;;21.17;14.13;;;8.80;92.90;;;;;;4844853;29;20199;-90
2022/04/06 09:27:21;;;;;;;24.53;14.87;;;8.80;93.00;;;;;;4845472;29;20561;-89
2022/04/06 09:29:49;;;;;;;24.67;13.30;;;8.80;93.00;;;;;;4861412;29;20207;-88
2022/04/06 09:32:15;;;;;;;23.53;13.73;;;8.80;93.00;;;;;;4844686;29;20222;-91
2022/04/06 09:34:42;;;;;;;24.20;14.43;;;8.80;93.10;;;;;;4844861;29;20662;-91
2022/04/06 09:37:29;;;;;;;18.93;12.13;;;8.80;93.20;;;;;;4861165;29;20547;-90
2022/04/06 09:39:56;;;;;;;19.90;12.43;;;8.80;93.10;;;;;;4847173;29;20656;-89
2022/04/06 09:42:24;;;;;;;17.47;9.70;;;8.80;93.10;;;;;;4848049;29;20257;-89
2022/04/06 09:47:39;;;;;;;19.43;10.93;;;8.70;93.10;;;;;;4864802;29;20250;-89
2022/04/06 09:50:11;;;;;;;16.13;10.77;;;8.70;92.80;;;;;;4847977;29;20210;-88
2022/04/06 09:52:37;;;;;;;15.70;9.10;;;8.80;92.70;;;;;;4847813;29;20226;-88
2022/04/06 09:55:07;;;;;;;10.93;8.67;;;8.80;92.50;;;;;;4848121;29;20210;-88
2022/04/06 09:57:56;;;;;;;15.53;8.70;;;8.90;92.30;;;;;;4864208;29;20239;-88
2022/04/06 10:00:28;;;;;;;14.87;9.20;;;8.80;92.20;;;;;;4847830;29;20171;-88
2022/04/06 10:03:00;;;;;;;9.47;6.83;;;8.80;92.00;;;;;;4847582;29;20258;-90
2022/04/06 10:05:29;;;;;;;12.90;6.63;;;8.80;91.60;;;;;;4864056;29;20189;-88
2022/04/06 10:07:55;;;;;;;11.10;7.30;;;8.80;91.20;;;;;;4864089;29;20235;-88
2022/04/06 10:10:24;;;;;;;17.13;8.10;;;8.80;91.30;;;;;;4847715;29;20183;-89
2022/04/06 10:12:51;;;;;;;14.47;7.30;;;8.80;91.30;;;;;;4847269;29;20183;-90
2022/04/06 10:15:17;;;;;;;10.90;5.63;;;8.80;91.40;;;;;;4847148;29;20218;-90
2022/04/06 10:17:43;;;;;;;11.53;7.20;;;8.80;91.60;;;;;;4847259;29;20634;-89
2022/04/06 10:20:17;;;;;;;11.33;7.13;;;8.80;91.70;;;;;;4847304;29;20210;-89
2022/04/06 10:23:05;;;;;;;13.30;7.33;;;8.80;91.50;;;;;;4847111;29;20227;-89
2022/04/06 10:25:36;;;;;;;8.30;5.90;;;8.80;91.70;;;;;;4857380;29;20237;-89
2022/04/06 10:28:10;;;;;;;8.63;6.40;;;8.90;91.60;;;;;;4847169;29;20171;-89
2022/04/06 10:30:35;;;;;;;12.00;6.90;;;8.90;91.40;;;;;;4847532;29;20194;-89
2022/04/06 10:33:20;;;;;;;14.57;8.20;;;8.90;91.50;;;;;;4848034;29;20186;-90
2022/04/06 10:35:46;;;;;;;10.33;7.40;;;9.00;91.80;;;;;;4847375;29;20199;-86
2022/04/06 10:38:14;;;;;;;9.63;6.90;;;9.00;91.80;;;;;;4863687;29;20177;-90
2022/04/06 10:40:46;;;;;;;8.97;7.80;;;8.90;91.90;;;;;;4847055;29;20186;-90
2022/04/06 10:43:44;;;;;;;9.73;6.30;;;8.90;92.20;;;;;;4846947;29;20185;-88
2022/04/06 10:46:15;;;;;;;12.50;7.50;;;9.00;92.50;;;;;;4846966;29;20198;-88
2022/04/06 10:49:05;;;;;;;10.70;7.87;;;8.90;92.40;;;;;;4846881;29;20591;-89
2022/04/06 10:51:35;;;;;;;10.97;7.97;;;9.00;92.40;;;;;;4845829;29;20209;-86
2022/04/06 10:54:21;;;;;;;10.97;6.53;;;9.00;92.40;;;;;;4846821;29;20298;-88
2022/04/06 10:56:50;;;;;;;10.50;8.93;;;9.10;92.60;;;;;;4856601;29;20218;-89
2022/04/06 10:59:29;;;;;;;12.57;8.43;;;9.00;92.40;;;;;;4846766;29;20189;-90
2022/04/06 11:02:14;;;;;;;8.97;7.23;;;9.00;92.30;;;;;;4847579;29;20174;-89
2022/04/06 11:04:40;;;;;;;9.33;6.10;;;9.10;92.30;;;;;;4863426;29;20692;-89
2022/04/06 11:07:08;;;;;;;12.70;8.57;;;9.00;92.00;;;;;;4846844;29;20211;-90
2022/04/06 11:12:31;;;;;;;12.03;6.83;;;9.10;91.20;;;;;;4863655;29;20224;-89
2022/04/06 11:14:59;;;;;;;15.33;7.90;;;9.20;91.00;;;;;;4846414;29;20226;-89
2022/04/06 11:17:44;;;;;;;9.53;7.60;;;9.20;90.70;;;;;;4846492;29;20179;-88
2022/04/06 11:20:15;;;;;;;12.37;7.87;;;9.20;90.80;;;;;;4846524;29;20254;-89
2022/04/06 11:22:53;;;;;;;13.97;8.17;;;9.20;90.30;;;;;;4846604;29;20273;-89
2022/04/06 11:25:21;;;;;;;14.23;8.63;;;9.30;89.90;;;;;;4846879;29;20198;-89
2022/04/06 11:27:48;;;;;;;11.07;8.20;;;9.30;89.70;;;;;;4862776;29;20261;-89
2022/04/06 11:30:23;;;;;;;11.00;8.17;;;9.30;89.90;;;;;;4846437;29;20183;-90
2022/04/06 11:32:53;;;;;;;19.83;9.83;;;9.30;90.20;;;;;;4846250;29;20191;-89
2022/04/06 11:35:19;;;;;;;14.67;8.97;;;9.40;90.80;;;;;;4846024;29;20579;-90
2022/04/06 11:37:48;;;;;;;16.93;11.20;;;9.40;91.00;;;;;;4846940;29;20190;-90
2022/04/06 11:40:16;;;;;;;17.53;9.57;;;9.40;91.30;;;;;;4862866;29;20171;-90
2022/04/06 11:42:50;;;;;;;11.83;7.50;;;9.40;91.50;;;;;;4846296;29;20207;-89
2022/04/06 11:45:22;;;;;;;15.20;10.70;;;9.30;91.40;;;;;;4846206;29;20217;-88
2022/04/06 11:47:53;;;;;;;16.20;11.30;;;9.30;91.60;;;;;;4846092;29;20187;-90
2022/04/06 11:50:19;;;;;;;16.87;12.20;;;9.40;92.00;;;;;;4845985;29;20692;-89
2022/04/06 11:52:45;;;;;;;19.30;11.60;;;9.50;92.20;;;;;;4845898;29;20654;-90
2022/04/06 11:55:11;;;;;;;18.20;12.10;;;9.40;92.30;;;;;;4845657;29;20210;-91
2022/04/06 11:57:38;;;;;;;15.53;8.73;;;9.50;92.40;;;;;;4862349;29;20696;-89
2022/04/06 12:00:06;;;;;;;19.97;12.83;;;9.50;92.40;;;;;;4862257;29;20610;-90
2022/04/06 12:02:51;;;;;;;19.50;13.60;;;9.40;92.30;;;;;;4845271;29;20227;-88
2022/04/06 12:05:18;;;;;;;19.03;13.53;;;9.30;92.20;;;;;;4845692;29;20298;-89
2022/04/06 12:07:45;;;;;;;15.10;9.53;;;9.30;92.40;;;;;;4845550;29;20238;-89
2022/04/06 12:10:11;;;;;;;21.23;12.80;;;9.20;92.20;;;;;;4845216;29;20182;-89
2022/04/06 12:12:38;;;;;;;19.23;14.17;;;9.20;92.10;;;;;;4845436;29;20273;-90
2022/04/06 12:15:08;;;;;;;20.60;12.77;;;9.30;92.10;;;;;;4849865;29;20230;-90
2022/04/06 12:17:34;;;;;;;17.77;12.27;;;9.30;92.20;;;;;;4845843;29;20190;-89
2022/04/06 12:20:08;;;;;;;19.93;14.53;;;9.30;91.90;;;;;;4844704;29;20423;-88
2022/04/06 12:22:33;;;;;;;16.13;10.17;;;9.30;91.70;;;;;;4862054;29;20690;-87
2022/04/06 12:24:58;;;;;;;20.73;11.90;;;9.30;91.50;;;;;;4845325;29;20199;-87
2022/04/06 12:27:28;;;;;;;13.27;10.13;;;9.30;90.90;;;;;;4845485;29;20171;-87
2022/04/06 12:30:10;;;;;;;18.17;11.93;;;9.40;90.60;;;;;;4845363;29;20688;-88
2022/04/06 12:32:49;;;;;;;21.73;11.77;;;9.50;90.70;;;;;;4861936;29;20766;-90
2022/04/06 12:35:24;;;;;;;20.70;11.40;;;9.50;90.60;;;;;;4844783;29;20207;-90
2022/04/06 12:37:50;;;;;;;13.70;8.47;;;9.60;89.90;;;;;;4845553;29;20665;-88
2022/04/06 12:40:23;;;;;;;14.37;10.30;;;9.70;89.60;;;;;;4845049;29;20190;-88
2022/04/06 12:42:49;;;;;;;12.77;10.30;;;9.70;89.50;;;;;;4845291;29;20177;-87
2022/04/06 12:45:15;;;;;;;16.03;10.13;;;9.80;89.30;;;;;;4845755;29;20548;-87
2022/04/06 12:47:41;;;;;;;14.77;8.67;;;9.80;89.40;;;;;;4861937;29;20252;-89
2022/04/06 12:50:19;;;;;;;20.70;10.17;;;9.70;89.30;;;;;;4844942;29;20183;-89
2022/04/06 12:53:07;;;;;;;19.30;9.97;;;9.80;89.30;;;;;;4845072;29;20188;-89
2022/04/06 12:55:32;;;;;;;16.50;9.90;;;9.80;89.10;;;;;;4861429;29;20609;-90
2022/04/06 12:58:18;;;;;;;12.07;9.57;;;9.80;89.00;;;;;;4844820;29;20174;-88
2022/04/06 13:00:45;;;;;;;14.07;9.33;;;9.80;89.10;;;;;;4861261;29;20174;-89
2022/04/06 13:03:11;;;;;;;10.70;7.47;;;9.70;89.10;;;;;;4844671;29;20688;-88
2022/04/06 13:05:36;;;;;;;15.93;8.97;;;9.70;89.30;;;;;;4844694;29;20186;-89
2022/04/06 13:08:02;;;;;;;15.93;10.40;;;9.60;89.70;;;;;;4861253;29;20255;-90
2022/04/06 13:10:34;;;;;;;9.03;6.77;;;9.50;89.80;;;;;;4844519;29;20179;-89
2022/04/06 13:13:00;;;;;;;12.83;7.03;;;9.50;89.90;;;;;;4844096;29;20183;-89
2022/04/06 13:15:27;;;;;;;15.40;10.00;;;9.50;90.00;;;;;;4844976;29;20230;-89
2022/04/06 13:17:52;;;;;;;14.33;8.30;;;9.60;90.40;;;;;;4860980;29;20174;-90
2022/04/06 13:20:20;;;;;;;11.17;6.77;;;9.50;90.50;;;;;;4845067;29;20201;-88
2022/04/06 13:22:47;;;;;;;13.63;7.70;;;9.60;90.60;;;;;;4844807;29;20179;-85
2022/04/06 13:25:14;;;;;;;12.97;10.33;;;9.60;90.90;;;;;;4844167;29;20230;-86
2022/04/06 13:27:43;;;;;;;17.70;8.40;;;9.60;91.00;;;;;;4860895;29;20185;-86
2022/04/06 13:30:14;;;;;;;20.20;11.60;;;9.60;91.10;;;;;;4861027;29;20611;-88
2022/04/06 13:32:44;;;;;;;11.53;8.33;;;9.60;91.20;;;;;;4860986;29;20239;-87
2022/04/06 13:35:10;;;;;;;16.07;10.93;;;9.60;91.20;;;;;;4844894;29;20198;-87
2022/04/06 13:37:37;;;;;;;16.60;8.73;;;9.60;91.20;;;;;;4845014;29;20581;-87
2022/04/06 13:40:03;;;;;;;10.00;9.00;;;9.60;91.20;;;;;;4844655;29;20264;-88
2022/04/06 13:42:29;;;;;;;9.30;8.10;;;9.50;91.50;;;;;;4844402;29;20206;-88
2022/04/06 13:44:54;;;;;;;11.43;6.57;;;9.50;91.60;;;;;;4844275;29;20255;-90
2022/04/06 13:47:20;;;;;;;15.97;8.93;;;9.40;91.60;;;;;;4844441;29;20658;-88
2022/04/06 13:49:46;;;;;;;19.17;9.13;;;9.40;91.60;;;;;;4844478;29;20189;-89
2022/04/06 13:52:12;;;;;;;17.73;9.53;;;9.40;91.60;;;;;;4844246;29;20179;-90
2022/04/06 13:54:38;;;;;;;19.57;11.07;;;9.30;91.70;;;;;;4844144;29;20210;-89
2022/04/06 13:57:04;;;;;;;10.33;8.93;;;9.40;92.00;;;;;;4844064;29;20639;-89
2022/04/06 13:59:30;;;;;;;10.53;8.80;;;9.30;92.00;;;;;;4844152;29;20269;-89
2022/04/06 14:01:55;;;;;;;7.90;7.00;;;9.30;92.00;;;;;;4844318;29;20183;-90
2022/04/06 14:04:21;;;;;;;11.70;10.47;;;9.30;91.90;;;;;;4844496;29;20214;-88
2022/04/06 14:06:47;;;;;;;15.17;9.00;;;9.30;91.70;;;;;;4843940;29;20193;-88
2022/04/06 14:09:13;;;;;;;10.90;8.33;;;9.50;91.20;;;;;;4844364;29;20282;-90
2022/04/06 14:11:41;;;;;;;13.43;8.43;;;9.50;91.20;;;;;;4843911;29;20689;-89
2022/04/06 14:14:07;;;;;;;11.87;8.13;;;9.50;91.10;;;;;;4843864;29;20218;-89
2022/04/06 14:16:32;;;;;;;10.23;8.77;;;9.50;91.00;;;;;;4844101;29;20682;-89
2022/04/06 14:18:59;;;;;;;12.40;10.00;;;9.50;90.90;;;;;;4843877;29;20230;-89
2022/04/06 14:21:26;;;;;;;11.20;7.77;;;9.60;90.90;;;;;;4843875;29;20195;-89
2022/04/06 14:23:52;;;;;;;8.13;7.33;;;9.70;90.50;;;;;;4860590;29;20197;-90
2022/04/06 14:26:18;;;;;;;11.53;8.70;;;9.80;90.10;;;;;;4846984;29;20183;-89
2022/04/06 14:28:44;;;;;;;10.50;8.73;;;9.90;90.30;;;;;;4847232;29;20179;-88
2022/04/06 14:31:10;;;;;;;10.93;7.43;;;10.00;90.40;;;;;;4847476;29;20602;-87
2022/04/06 14:33:36;;;;;;;11.90;9.17;;;9.90;89.60;;;;;;4847320;29;20369;-87
2022/04/06 14:36:03;;;;;;;11.47;8.03;;;10.00;90.10;;;;;;4848798;29;20202;-86
2022/04/06 14:38:30;;;;;;;8.93;7.60;;;10.00;90.10;;;;;;4848399;29;20592;-88
2022/04/06 14:40:56;;;;;;;12.70;7.90;;;10.00;89.50;;;;;;4848265;29;20231;-88
2022/04/06 14:43:22;;;;;;;11.87;7.33;;;10.00;89.90;;;;;;4848417;29;20207;-89
2022/04/06 14:45:50;;;;;;;7.97;7.10;;;10.00;89.90;;;;;;4865859;29;20214;-89
2022/04/06 14:48:16;;;;;;;6.23;5.27;;;10.00;89.80;;;;;;4848447;29;20186;-89
2022/04/06 14:50:42;;;;;;;6.50;5.87;;;9.90;89.60;;;;;;4864125;29;20194;-88
2022/04/06 14:53:10;;;;;;;10.50;8.13;;;9.90;89.40;;;;;;4846876;29;20182;-88
2022/04/06 14:55:38;;;;;;;8.43;6.57;;;9.90;89.40;;;;;;4846887;29;20214;-87
2022/04/06 14:58:05;;;;;;;8.20;7.20;;;9.90;89.40;;;;;;4863453;29;20259;-89
2022/04/06 15:00:31;;;;;;;11.60;8.77;;;9.90;89.40;;;;;;4863551;29;20733;-87
2022/04/06 15:02:57;;;;;;;9.30;5.93;;;9.90;89.60;;;;;;4846725;29;20189;-88